Latest Weather Observations for The Monument

IDQ60801

Issued at 6:05 am EST Wednesday 26 November 2014 (issued every 30 minutes, with the page automatically refreshed every 10 minutes)

About weather observations | Map of weather stations | Latest weather observations for QLD | Other Formats
Station Details ID: 037034 Name: THE MONUMENT AIRPORT Lat: -21.81 Lon: 139.93 Height: 288.4 m
Data from the previous 72 hours. | See also: Recent months at The Monument
Date/Time
EST
Temp
°C
App
Temp
°C
Dew
Point
Rel
Hum
%
Delta-T
°C
Wind Press
QNH
hPa
Press
MSL
hPa
Rain
since 9 am
mm
Dir
 
Spd
km/h
Gust
km/h
Spd
kts
Gust
kts
26/06:00am 25.4 24.7 17.3 61 5.1 ESE 17 24 9 13 1012.2 1010.2 0.0
26/05:30am 25.5 24.3 17.4 61 5.1 ESE 20 32 11 17 1012.1 1010.1 0.0
26/05:00am 25.3 24.5 17.2 61 5.1 SE 17 22 9 12 1011.6 1009.6 0.0
26/04:30am 25.6 24.5 17.3 60 5.2 SE 19 26 10 14 1011.3 1009.3 0.0
26/04:00am 25.6 24.3 17.3 60 5.2 SE 20 30 11 16 1011.4 1009.4 0.0
26/03:30am 25.3 24.0 17.2 61 5.1 SE 20 28 11 15 1011.7 1009.7 0.0
26/03:00am 25.7 24.1 17.4 60 5.2 SE 22 32 12 17 1011.6 1009.6 0.0
26/02:30am 26.1 23.8 17.7 60 5.3 SE 26 41 14 22 1011.5 1009.5 0.0
26/02:00am 26.6 23.6 17.7 58 5.7 SE 30 41 16 22 1011.4 1009.4 0.0
26/01:46am 27.0 24.3 17.5 56 6.0 SE 28 46 15 25 1011.4 1009.4 0.0
26/01:30am 27.1 25.2 17.6 56 6.0 SSE 24 32 13 17 1011.5 1009.5 0.0
26/01:00am 27.8 26.3 16.4 50 7.2 SSE 19 32 10 17 1012.0 1010.0 0.0
26/12:46am 28.4 25.1 16.0 47 7.7 SSE 28 43 15 23 1011.9 1009.9 0.0
26/12:30am 28.4 27.1 16.7 49 7.4 SSE 19 24 10 13 1012.1 1010.1 0.0
26/12:00am 28.3 27.7 17.5 52 6.9 S 17 22 9 12 1011.8 1009.8 0.0
 
Date/Time
EST
Temp
°C
App
Temp
°C
Dew
Point
Rel
Hum
%
Delta-T
°C
Wind Press
QNH
hPa
Press
MSL
hPa
Rain
since 9 am
mm
Dir
 
Spd
km/h
Gust
km/h
Spd
kts
Gust
kts
25/11:30pm 28.8 28.3 17.7 51 7.1 S 17 22 9 12 1012.1 1010.1 0.0
25/11:00pm 28.8 28.5 17.3 49 7.3 S 15 19 8 10 1012.1 1010.1 0.0
25/10:30pm 28.7 27.9 17.2 49 7.3 SSE 17 24 9 13 1012.1 1010.1 0.0
25/10:00pm 29.1 28.1 17.6 50 7.4 SE 19 24 10 13 1012.0 1010.0 0.0
25/09:30pm 30.1 28.9 16.1 42 8.8 SE 17 24 9 13 1011.9 1009.9 0.0
25/09:00pm 30.5 28.2 15.8 41 9.2 SE 22 33 12 18 1011.5 1009.5 0.0
25/08:30pm 30.9 28.2 15.7 39 9.5 SSE 24 35 13 19 1011.2 1009.2 0.0
25/08:00pm 31.5 28.0 15.5 38 10.0 SSE 28 39 15 21 1011.2 1009.2 0.0
25/07:35pm 32.1 28.6 15.6 37 10.4 SSE 28 46 15 25 1010.7 1008.7 0.0
25/07:30pm 32.0 28.9 15.5 37 10.4 SSE 26 39 14 21 1010.6 1008.6 0.0
25/07:07pm 33.6 29.6 14.1 30 12.1 SSE 28 52 15 28 1010.0 1008.0 0.0
25/07:00pm 34.4 31.6 13.3 28 13.0 SSE 20 28 11 15 1009.8 1007.8 0.0
25/06:30pm 33.7 34.7 14.2 30 12.1 E 2 9 1 5 1009.2 1007.2 0.0
25/06:00pm 34.1 34.1 15.1 32 12.0 NE 9 13 5 7 1008.9 1006.9 0.0
25/05:30pm 34.4 32.7 14.8 30 12.3 NE 17 22 9 12 1008.5 1006.5 0.0
25/05:00pm 35.4 31.4 14.1 28 13.3 ESE 28 37 15 20 1008.1 1006.1 0.0
25/04:30pm 36.0 32.0 12.9 25 14.2 S 26 35 14 19 1007.9 1005.9 0.0
25/04:00pm 36.8 33.2 14.1 25 14.2 S 26 41 14 22 1008.0 1006.0 0.0
25/03:30pm 36.8 33.2 14.1 25 14.2 SSE 26 35 14 19 1008.3 1006.3 0.0
25/03:00pm 36.6 35.6 13.4 25 14.4 S 11 22 6 12 1008.9 1006.9 0.0
25/02:30pm 36.2 36.6 14.8 28 13.5 W 6 9 3 5 1009.5 1007.4 0.0
25/02:00pm 35.0 35.6 15.8 31 12.2 NNE 7 13 4 7 1010.2 1008.2 0.0
25/01:30pm 33.2 33.6 14.8 33 11.5 WSW 6 7 3 4 1010.8 1008.8 0.0
25/01:00pm 31.7 32.4 16.0 38 9.9 ENE 7 11 4 6 1011.3 1009.3 0.0
25/12:30pm 32.5 31.8 15.5 36 10.7 E 13 17 7 9 1011.8 1009.8 0.0
25/12:00pm 32.5 30.6 15.1 35 10.9 ESE 19 26 10 14 1011.9 1009.9 0.0
25/11:30am 32.7 30.4 15.7 36 10.7 SE 22 30 12 16 1012.1 1010.1 0.0
25/11:00am 34.0 32.0 16.4 35 11.3 SE 22 30 12 16 1012.2 1010.2 0.0
25/10:30am 31.7 31.3 17.2 42 9.3 SSE 15 20 8 11 1012.2 1010.2 0.0
25/10:00am 31.5 30.5 16.6 40 9.5 SSE 17 24 9 13 1012.2 1010.2 0.0
25/09:30am 31.4 30.3 17.7 44 8.9 SE 20 30 11 16 1012.1 1010.1 0.0
25/09:00am 30.6 29.9 18.7 49 7.8 SE 20 28 11 15 1011.9 1009.9 42.6
25/08:30am 27.8 29.3 19.8 61 5.3 S 11 15 6 8 1011.9 1009.9 42.6
25/08:00am 26.8 29.0 20.4 68 4.2 S 9 11 5 6 1011.6 1009.6 42.6
25/07:30am 26.6 27.8 20.0 67 4.3 S 13 19 7 10 1011.7 1009.7 42.6
25/07:00am 26.3 28.9 20.4 70 3.9 S 7 15 4 8 1011.3 1009.3 42.6
25/06:30am 26.0 29.1 19.6 68 4.2 ESE 2 9 1 5 1010.7 1008.7 42.6
25/06:00am 25.8 27.9 19.4 67 4.2 ESE 7 11 4 6 1010.3 1008.3 42.6
25/05:30am 25.7 29.2 19.6 69 4.0 CALM 0 0 0 0 1010.3 1008.3 42.6
25/05:00am 25.8 29.1 19.9 70 3.9 SE 2 11 1 6 1010.2 1008.2 42.6
25/04:30am 25.3 27.7 20.1 73 3.4 SE 7 9 4 5 1009.9 1007.9 42.6
25/04:00am 25.3 27.4 20.1 73 3.4 SE 9 11 5 6 1009.8 1007.8 42.6
25/03:30am 25.5 27.6 20.1 72 3.5 SE 9 13 5 7 1009.7 1007.6 42.6
25/03:00am 25.3 27.3 19.9 72 3.5 SE 9 11 5 6 1009.6 1007.5 42.6
25/02:30am 25.8 29.2 20.1 71 3.7 SSE 2 9 1 5 1009.8 1007.8 42.6
25/02:00am 25.8 30.1 21.2 76 3.1 CALM 0 0 0 0 1009.9 1007.9 42.6
25/01:30am 25.8 28.8 20.8 74 3.3 ESE 6 6 3 3 1010.2 1008.2 42.6
25/01:00am 25.7 27.7 20.7 74 3.3 E 11 15 6 8 1010.6 1008.6 42.6
25/12:30am 26.1 29.8 20.7 72 3.6 ESE 2 6 1 3 1011.3 1009.3 42.6
25/12:00am 25.8 29.6 21.0 75 3.2 E 2 7 1 4 1011.4 1009.4 42.6
 
Date/Time
EST
Temp
°C
App
Temp
°C
Dew
Point
Rel
Hum
%
Delta-T
°C
Wind Press
QNH
hPa
Press
MSL
hPa
Rain
since 9 am
mm
Dir
 
Spd
km/h
Gust
km/h
Spd
kts
Gust
kts
24/11:30pm 25.7 27.9 21.1 76 3.1 ESE 11 15 6 8 1011.5 1009.5 42.6
24/11:00pm 25.7 27.3 21.4 77 2.9 ESE 15 20 8 11 1011.9 1009.9 42.6
24/10:30pm 26.1 27.5 21.1 74 3.3 SE 15 22 8 12 1012.1 1010.1 42.6
24/10:00pm 25.4 28.3 21.7 80 2.5 SSE 9 11 5 6 1011.9 1009.9 42.6
24/09:30pm 25.2 27.7 21.1 78 2.7 ENE 9 11 5 6 1011.8 1009.8 42.6
24/09:00pm 24.6 27.1 21.1 81 2.3 SSW 9 15 5 8 1012.1 1010.1 42.6
24/08:30pm 25.4 25.0 20.2 73 3.4 SSE 22 33 12 18 1012.1 1010.1 41.2
24/08:00pm 27.1 27.8 20.4 66 4.4 SE 17 24 9 13 1012.1 1010.1 41.0
24/07:30pm 27.5 26.6 19.8 63 5.1 SSE 24 41 13 22 1011.9 1009.9 40.6
24/07:11pm 27.6 26.1 20.2 64 4.9 SSE 28 46 15 25 1011.8 1009.8 40.6
24/07:00pm 28.2 25.9 19.4 59 5.8 S 30 39 16 21 1011.7 1009.7 40.6
24/06:51pm 28.8 26.9 19.4 56 6.2 S 28 50 15 27 1011.4 1009.4 40.6
24/06:30pm 28.4 29.0 21.4 66 4.7 S 20 30 11 16 1010.3 1008.3 40.6
24/06:00pm 28.5 31.2 21.3 65 4.9 NNE 9 15 5 8 1009.6 1007.5 40.6
24/05:30pm 28.2 31.1 20.7 63 5.0 NNE 6 9 3 5 1009.0 1007.0 40.6
24/05:00pm 28.4 28.8 19.9 60 5.6 W 17 26 9 14 1008.9 1006.9 40.6
24/04:30pm 27.8 26.9 20.6 65 4.8 W 26 35 14 19 1008.8 1006.8 40.6
24/04:00pm 28.2 27.3 21.5 67 4.5 W 28 37 15 20 1008.7 1006.7 40.6
24/03:30pm 26.8 27.1 21.5 72 3.6 NNW 22 32 12 17 1008.4 1006.4 40.6
24/03:00pm 25.4 25.9 21.9 81 2.4 NNW 22 33 12 18 1008.4 1006.4 40.6
24/02:30pm 23.7 22.0 19.0 75 3.0 ENE 26 35 14 19 1009.7 1007.6 38.4
24/02:15pm 24.9 22.4 18.1 66 4.3 NNW 28 41 15 22 1009.2 1007.2 30.4
24/02:06pm 23.3 19.1 18.8 76 2.9 N 39 61 21 33 1009.8 1007.8 28.2
24/02:02pm 22.9 18.9 19.3 80 2.3 ENE 39 91 21 49 1010.2 1008.2 24.2
24/02:00pm 23.2 20.2 19.1 78 2.6 ENE 33 59 18 32 1010.3 1008.3 20.6
24/01:59pm 24.3 21.7 19.4 74 3.2 ENE 32 54 17 29 1010.4 1008.4 18.4
24/01:54pm 26.7 24.9 20.3 68 4.2 ENE 30 41 16 22 1010.4 1008.4 13.2
24/01:47pm 24.6 18.4 16.3 60 5.1 SE 44 85 24 46 1010.1 1008.1 7.2
24/01:36pm 31.8 29.6 16.9 40 9.5 E 24 39 13 21 1008.7 1006.7 1.8
24/01:30pm 36.9 37.0 17.5 32 12.7 NNE 13 22 7 12 1008.7 1006.7 0.2
24/01:00pm 39.2 38.1 14.3 23 15.8 W 13 20 7 11 1009.1 1007.1 0.0
24/12:30pm 38.4 37.3 14.2 23 15.2 N 13 22 7 12 1009.9 1007.9 0.0
24/12:00pm 39.7 36.7 14.7 23 15.9 NNE 24 32 13 17 1010.5 1008.5 0.0
24/11:30am 39.2 37.6 14.9 23 15.5 N 17 28 9 15 1011.1 1009.1 0.0
24/11:00am 38.4 37.1 14.9 25 14.9 N 15 22 8 12 1011.3 1009.3 0.0
24/10:30am 37.4 35.1 14.6 25 14.4 NNE 20 32 11 17 1011.5 1009.5 0.0
24/10:00am 37.4 35.1 14.6 25 14.4 NNE 20 30 11 16 1011.5 1009.5 0.0
24/09:30am 36.3 34.4 14.3 27 13.8 NNE 17 24 9 13 1011.6 1009.6 0.0
24/09:00am 35.9 36.0 15.6 30 12.9 N 9 24 5 13 1011.5 1009.5 0.0
24/08:30am 33.5 34.3 15.9 34 11.2 N 6 11 3 6 1011.4 1009.4 0.0
24/08:00am 32.6 34.5 16.8 38 10.1 N 2 9 1 5 1011.3 1009.3 0.0
24/07:30am 31.5 32.6 17.0 41 9.3 NNE 7 11 4 6 1011.0 1009.0 0.0
24/07:00am 30.1 30.9 17.2 46 8.3 ENE 9 13 5 7 1010.6 1008.6 0.0
24/06:30am 27.4 28.9 17.6 55 6.2 NNE 6 9 3 5 1010.3 1008.3 0.0
24/06:00am 27.1 29.4 16.7 53 6.5 CALM 0 0 0 0 1010.0 1008.0 0.0
24/05:30am 27.5 28.6 16.5 51 6.9 N 6 7 3 4 1009.9 1007.9 0.0
24/05:00am 28.3 29.2 16.6 49 7.4 NNW 7 9 4 5 1009.7 1007.6 0.0
24/04:30am 29.0 28.6 16.2 46 8.0 NNW 13 15 7 8 1009.5 1007.4 0.0
24/04:00am 29.8 28.9 15.9 43 8.7 WNW 15 19 8 10 1009.7 1007.6 0.0
24/03:30am 30.3 29.1 16.0 42 9.0 W 17 22 9 12 1010.0 1008.0 0.0
24/03:00am 31.4 28.7 14.5 35 10.4 W 22 32 12 17 1010.3 1008.3 0.0
24/02:30am 30.8 28.3 15.2 38 9.7 W 22 33 12 18 1010.6 1008.6 0.0
24/02:00am 30.6 29.9 14.2 36 10.1 N 11 15 6 8 1010.0 1008.0 0.0
24/01:30am 29.4 28.9 14.8 41 9.0 N 11 15 6 8 1010.3 1008.3 0.0
24/01:00am 29.2 28.6 14.6 41 9.0 N 11 13 6 7 1010.6 1008.6 0.0
24/12:30am 29.1 28.2 14.9 42 8.7 ENE 13 15 7 8 1010.7 1008.7 0.0
24/12:00am 29.7 29.4 14.3 39 9.4 NE 9 11 5 6 1010.6 1008.6 0.0
 
Date/Time
EST
Temp
°C
App
Temp
°C
Dew
Point
Rel
Hum
%
Delta-T
°C
Wind Press
QNH
hPa
Press
MSL
hPa
Rain
since 9 am
mm
Dir
 
Spd
km/h
Gust
km/h
Spd
kts
Gust
kts
23/11:30pm 30.1 29.4 14.2 38 9.7 NE 11 15 6 8 1011.1 1009.1 0.0
23/11:00pm 30.9 29.9 14.5 37 10.1 NNE 13 17 7 9 1011.3 1009.3 0.0
23/10:30pm 31.6 29.2 13.8 34 10.9 NNE 19 26 10 14 1011.3 1009.3 0.0
23/10:00pm 30.9 29.8 15.3 38 9.7 NE 15 20 8 11 1011.3 1009.3 0.0
23/09:30pm 31.1 29.0 16.3 41 9.4 ENE 22 32 12 17 1011.3 1009.3 0.0
23/09:00pm 31.1 29.3 15.5 39 9.8 ENE 19 24 10 13 1011.2 1009.2 0.0
23/08:30pm 31.5 28.2 15.0 36 10.3 ENE 26 39 14 21 1010.9 1008.9 0.0
23/08:00pm 32.0 28.5 14.6 34 10.8 E 26 35 14 19 1010.3 1008.3 0.0
23/07:44pm 32.7 28.7 15.2 34 11.0 E 30 56 16 30 1010.1 1008.1 0.0
23/07:37pm 34.6 30.9 15.0 31 12.3 E 28 41 15 22 1010.0 1008.0 0.0
23/07:30pm 36.2 35.3 14.8 28 13.5 NE 13 15 7 8 1009.5 1007.4 0.0
23/07:00pm 36.3 35.4 14.9 28 13.5 NE 13 20 7 11 1009.1 1007.1 0.0
23/06:30pm 37.6 35.1 14.2 25 14.7 ENE 20 24 11 13 1008.6 1006.6 0.0
23/06:00pm 38.9 37.7 14.0 23 15.7 SSE 13 17 7 9 1008.1 1006.1 0.0
23/05:30pm 38.9 38.5 14.0 23 15.7 SSE 9 17 5 9 1008.1 1006.1 0.0
23/05:00pm 39.0 39.0 14.1 23 15.7 S 7 13 4 7 1007.9 1005.9 0.0
23/04:30pm 39.6 37.8 13.2 21 16.5 NE 15 20 8 11 1007.9 1005.9 0.0
23/04:00pm 39.0 36.1 14.1 23 15.7 NW 22 32 12 17 1008.3 1006.3 0.0
23/03:30pm 39.1 37.4 13.5 22 16.0 ESE 15 33 8 18 1008.4 1006.4 0.0
23/03:00pm 40.6 39.8 14.0 21 16.8 W 11 20 6 11 1008.9 1006.9 0.0
23/02:30pm 40.4 38.3 14.6 22 16.4 N 19 24 10 13 1009.5 1007.4 0.0
23/02:00pm 39.5 37.3 14.5 23 15.9 N 19 28 10 15 1010.1 1008.1 0.0
23/01:30pm 40.0 38.6 15.6 24 15.7 NE 17 28 9 15 1010.7 1008.7 0.0
23/01:00pm 38.4 37.3 14.2 23 15.2 NE 13 26 7 14 1011.3 1009.3 0.0
23/12:30pm 38.4 36.9 14.2 23 15.2 NNE 15 30 8 16 1011.8 1009.8 0.0
23/12:00pm 38.3 36.6 14.8 25 14.9 N 17 28 9 15 1012.2 1010.2 0.0
23/11:30am 37.5 35.1 15.3 26 14.1 N 22 35 12 19 1012.5 1010.5 0.0
23/11:00am 36.1 34.2 15.2 28 13.2 NNE 19 30 10 16 1013.1 1011.1 0.0
23/10:30am 35.7 34.1 16.4 31 12.4 NNE 20 32 11 17 1013.5 1011.5 0.0
23/10:00am 34.1 32.7 16.9 36 11.1 N 20 30 11 16 1013.6 1011.6 0.0
23/09:30am 33.5 33.1 17.2 37 10.5 NNE 15 24 8 13 1013.8 1011.8 0.0
23/09:00am 32.7 32.2 17.7 40 9.7 NNE 17 24 9 13 1013.8 1011.8 3.6
23/08:30am 31.7 30.6 17.2 42 9.3 NE 19 24 10 13 1013.8 1011.8 3.6
23/08:00am 30.4 30.4 17.1 44 8.5 NNE 13 19 7 10 1013.5 1011.5 3.6
23/07:30am 28.8 28.7 17.0 49 7.5 N 13 17 7 9 1013.3 1011.3 3.6
23/07:00am 27.6 29.5 18.6 58 5.8 N 6 9 3 5 1012.7 1010.7 3.6
23/06:30am 25.9 27.8 18.6 64 4.7 N 6 7 3 4 1011.9 1009.9 3.6

Other Formats:

Comma delimited format used in spreadsheet applications
http://www.bom.gov.au/fwo/IDQ60801/IDQ60801.94336.axf

JavaScript Object Notation format (JSON) in row-major order
http://www.bom.gov.au/fwo/IDQ60801/IDQ60801.94336.json